Time;durP1;ratioP1;P1;durP2;ratioP2;P2;SDS_P1;SDS_P2;PMS_P1;PMS_P2;Temp;Humidity;BMP_temperature;BMP_pressure;BME280_temperature;BME280_humidity;BME280_pressure;Samples;Min_cycle;Max_cycle;Signal;HPM_P1;HPM_P2
2022/11/14 00:00:53;;;;;;;;;23.75;15.75;;;;;9.82;70.15;101161.88;5077442;27;46117;-77
2022/11/14 00:03:18;;;;;;;;;24.50;20.50;;;;;9.85;70.79;101166.19;5076603;27;45387;-76
2022/11/14 00:05:44;;;;;;;;;24.00;19.25;;;;;9.86;70.65;101154.88;5076235;27;66203;-76
2022/11/14 00:08:20;;;;;;;;;30.50;20.75;;;;;9.86;70.60;101153.16;5059871;28;45463;-76
2022/11/14 00:10:46;;;;;;;;;27.75;23.00;;;;;9.89;70.76;101158.28;5077456;28;45368;-77
2022/11/14 00:13:12;;;;;;;;;32.75;21.00;;;;;9.86;71.22;101155.75;5076392;28;45365;-77
2022/11/14 00:15:37;;;;;;;;;20.00;19.00;;;;;9.87;70.61;101146.19;5076052;27;45448;-77
2022/11/14 00:18:03;;;;;;;;;26.75;20.50;;;;;9.90;70.66;101153.94;5076275;27;45509;-76
2022/11/14 00:20:28;;;;;;;;;28.50;20.50;;;;;9.88;70.67;101145.34;5077412;27;45829;-77
2022/11/14 00:22:53;;;;;;;;;26.00;18.50;;;;;9.94;70.84;101142.59;5058251;28;72042;-76
2022/11/14 00:25:18;;;;;;;;;26.25;22.75;;;;;9.95;70.51;101146.91;5076738;27;64894;-76
2022/11/14 00:27:44;;;;;;;;;27.50;20.25;;;;;9.96;70.25;101142.56;5058598;28;63258;-76
2022/11/14 00:30:09;;;;;;;;;36.50;23.75;;;;;9.97;70.52;101149.47;5075975;28;74732;-77
2022/11/14 00:32:35;;;;;;;;;24.50;23.25;;;;;9.98;71.03;101149.44;5076086;27;45215;-77
2022/11/14 00:35:00;;;;;;;;;32.00;20.75;;;;;9.93;70.35;101146.06;5076502;27;62198;-77
2022/11/14 00:37:26;;;;;;;;;25.00;22.00;;;;;9.88;70.70;101140.13;5076299;28;68498;-76
2022/11/14 00:39:51;;;;;;;;;31.75;22.75;;;;;9.87;70.28;101148.81;5077245;28;45526;-77
2022/11/14 00:42:16;;;;;;;;;34.50;22.00;;;;;9.87;70.54;101146.19;5077166;28;45362;-76
2022/11/14 00:44:42;;;;;;;;;31.50;23.50;;;;;9.87;71.12;101135.81;5076013;28;66424;-77
2022/11/14 00:47:07;;;;;;;;;29.50;22.75;;;;;9.86;70.80;101129.75;5077189;28;45251;-76
2022/11/14 00:49:32;;;;;;;;;32.00;22.00;;;;;9.90;70.93;101135.75;5057796;28;74459;-76
2022/11/14 00:51:58;;;;;;;;;33.75;20.50;;;;;9.93;70.55;101127.03;5058781;28;45483;-77
2022/11/14 00:54:25;;;;;;;;;27.25;16.75;;;;;9.95;70.94;101133.03;5058076;28;66457;-76
2022/11/14 00:56:50;;;;;;;;;32.00;23.75;;;;;9.94;71.29;101132.19;5077066;28;45312;-77
2022/11/14 00:59:16;;;;;;;;;30.00;22.75;;;;;9.91;71.02;101129.66;5076526;27;46816;-76
2022/11/14 01:01:41;;;;;;;;;32.00;24.00;;;;;9.87;71.43;101131.44;5075912;28;67633;-77
2022/11/14 01:04:06;;;;;;;;;24.75;19.75;;;;;9.88;70.93;101127.13;5076973;28;45453;-76
2022/11/14 01:06:32;;;;;;;;;31.50;23.25;;;;;9.93;70.59;101124.41;5076979;27;45361;-76
2022/11/14 01:08:57;;;;;;;;;31.00;23.75;;;;;9.93;71.09;101127.88;5057499;28;73156;-76
2022/11/14 01:11:22;;;;;;;;;31.50;20.25;;;;;9.95;70.96;101117.44;5057527;28;72118;-77
2022/11/14 01:13:48;;;;;;;;;29.75;22.00;;;;;9.94;71.32;101118.34;5075565;28;64652;-77
2022/11/14 01:16:13;;;;;;;;;31.00;20.50;;;;;9.91;70.73;101108.84;5058389;28;45383;-76
2022/11/14 01:18:39;;;;;;;;;30.50;24.25;;;;;9.96;70.67;101112.22;5057573;28;45559;-77
2022/11/14 01:21:07;;;;;;;;;27.00;20.00;;;;;9.97;71.00;101110.47;5075403;27;45455;-77
2022/11/14 01:23:32;;;;;;;;;32.50;19.75;;;;;9.96;70.85;101112.22;5075383;27;45562;-77
2022/11/14 01:26:09;;;;;;;;;22.75;16.00;;;;;9.88;71.11;101108.94;5076351;28;52130;-77
2022/11/14 01:28:35;;;;;;;;;32.25;23.50;;;;;9.78;71.11;101109.97;5057788;28;48752;-76
2022/11/14 01:31:08;;;;;;;;;33.00;19.75;;;;;9.70;70.94;101104.94;5057361;28;67660;-76
2022/11/14 01:33:33;;;;;;;;;28.50;21.00;;;;;9.68;71.77;101104.13;5076414;28;45336;-77
2022/11/14 01:35:59;;;;;;;;;24.00;20.00;;;;;9.70;72.01;101104.94;5058294;28;45482;-76
2022/11/14 01:38:24;;;;;;;;;25.00;21.25;;;;;9.69;71.45;101096.28;5075223;28;66756;-76
2022/11/14 01:40:49;;;;;;;;;32.50;22.50;;;;;9.76;71.56;101094.41;5057032;28;72482;-77
2022/11/14 01:43:15;;;;;;;;;27.75;20.75;;;;;9.78;71.82;101083.97;5075266;28;64286;-77
2022/11/14 01:45:51;;;;;;;;;25.33;18.33;;;;;9.77;71.54;101079.66;5076183;28;45389;-76
2022/11/14 01:48:21;;;;;;;;;19.00;17.25;;;;;9.78;71.41;101073.59;5075974;28;46381;-76
2022/11/14 01:50:52;;;;;;;;;24.50;15.25;;;;;9.77;71.40;101070.13;5058055;28;45379;-76
2022/11/14 01:53:18;;;;;;;;;16.50;16.00;;;;;9.76;71.21;101071.00;5058204;28;45307;-77
2022/11/14 01:55:44;;;;;;;;;23.50;17.50;;;;;9.68;70.99;101073.75;5058050;28;45183;-76
2022/11/14 01:58:09;;;;;;;;;24.25;18.50;;;;;9.62;71.16;101060.91;5057519;28;47153;-77
2022/11/14 02:00:34;;;;;;;;;26.75;20.75;;;;;9.58;71.56;101077.41;5075045;28;73202;-76
2022/11/14 02:03:00;;;;;;;;;21.50;18.75;;;;;9.45;71.51;101066.44;5057438;28;55910;-77
2022/11/14 02:05:25;;;;;;;;;35.00;24.75;;;;;9.41;71.62;101072.53;5057778;28;48541;-76
2022/11/14 02:07:51;;;;;;;;;26.25;20.50;;;;;9.42;71.64;101061.28;5057267;28;61979;-77
2022/11/14 02:10:20;;;;;;;;;25.50;20.50;;;;;9.40;71.93;101072.59;5075074;27;68246;-76
2022/11/14 02:12:45;;;;;;;;;27.25;21.50;;;;;9.31;72.23;101071.03;5075579;27;45341;-76
2022/11/14 02:15:11;;;;;;;;;24.25;20.00;;;;;9.32;72.22;101071.88;5074876;28;67354;-76
2022/11/14 02:17:36;;;;;;;;;25.50;19.75;;;;;9.32;71.96;101059.72;5075546;27;46142;-76
2022/11/14 02:20:02;;;;;;;;;28.25;22.50;;;;;9.47;72.40;101075.06;5057763;28;45539;-77
2022/11/14 02:22:27;;;;;;;;;30.33;20.33;;;;;9.51;72.34;101070.66;5075962;28;45844;-77
2022/11/14 02:24:52;;;;;;;;;28.50;20.50;;;;;9.57;72.08;101067.06;5074872;28;64075;-76
2022/11/14 02:27:17;;;;;;;;;29.75;21.25;;;;;9.53;72.24;101071.47;5056269;28;75594;-76
2022/11/14 02:29:43;;;;;;;;;38.25;25.75;;;;;9.43;72.11;101056.94;5060378;28;45423;-76
2022/11/14 02:32:08;;;;;;;;;43.00;28.50;;;;;9.41;72.29;101061.31;5078487;28;63578;-77
2022/11/14 02:34:33;;;;;;;;;38.75;24.25;;;;;9.42;72.70;101065.63;5060212;28;67192;-77
2022/11/14 02:36:59;;;;;;;;;31.00;26.75;;;;;9.34;72.48;101059.69;5078798;28;47443;-75
2022/11/14 02:39:25;;;;;;;;;34.25;25.50;;;;;9.26;72.99;101058.09;5079154;27;45364;-77
2022/11/14 02:41:50;;;;;;;;;28.25;24.25;;;;;9.23;73.00;101047.78;5077890;27;67812;-77
2022/11/14 02:44:16;;;;;;;;;41.50;26.25;;;;;9.21;73.25;101046.97;5061011;28;45576;-77
2022/11/14 02:46:42;;;;;;;;;36.00;24.25;;;;;9.28;72.99;101053.72;5060886;28;45395;-76
2022/11/14 02:49:07;;;;;;;;;30.75;23.50;;;;;9.26;72.63;101046.84;5078044;28;69920;-76
2022/11/14 02:51:32;;;;;;;;;27.75;23.00;;;;;9.26;73.19;101042.50;5078459;27;58549;-76
2022/11/14 02:53:58;;;;;;;;;33.00;26.00;;;;;9.32;72.91;101045.88;5077792;28;62802;-76
2022/11/14 02:56:23;;;;;;;;;44.50;30.75;;;;;9.28;73.29;101045.09;5078786;27;46908;-77
2022/11/14 02:58:48;;;;;;;;;31.00;25.75;;;;;9.22;73.14;101040.03;5059866;28;66261;-76
2022/11/14 03:01:14;;;;;;;;;36.75;23.25;;;;;9.23;73.43;101045.19;5060703;28;45578;-77
2022/11/14 03:03:39;;;;;;;;;30.25;23.50;;;;;9.18;73.03;101039.22;5076645;28;64493;-76
2022/11/14 03:06:05;;;;;;;;;33.00;23.00;;;;;9.13;72.86;101028.03;5077643;28;72268;-77
2022/11/14 03:08:31;;;;;;;;;31.00;22.00;;;;;9.06;73.14;101022.13;5078242;27;45282;-76
2022/11/14 03:11:03;;;;;;;;;26.50;15.00;;;;;8.99;73.64;101030.03;5059683;28;63898;-76
2022/11/14 03:13:29;;;;;;;;;37.00;22.00;;;;;8.99;73.46;101017.91;5060508;28;45606;-76
2022/11/14 03:15:55;;;;;;;;;30.75;21.50;;;;;9.00;73.56;101010.97;5060334;28;46318;-76
2022/11/14 03:18:20;;;;;;;;;31.25;19.25;;;;;9.07;73.42;101013.44;5078386;27;45908;-77
2022/11/14 03:20:45;;;;;;;;;26.00;18.50;;;;;9.13;73.85;101014.22;5078605;28;45367;-76
2022/11/14 03:23:11;;;;;;;;;29.75;21.75;;;;;9.15;73.29;101009.84;5077862;28;70269;-77
2022/11/14 03:25:36;;;;;;;;;26.75;20.75;;;;;9.17;73.76;101015.88;5078360;28;45393;-76
2022/11/14 03:28:01;;;;;;;;;26.00;18.25;;;;;9.21;73.38;101010.59;5043377;28;45367;-77
2022/11/14 03:30:27;;;;;;;;;31.50;19.75;;;;;9.21;73.29;101015.78;5060420;28;45402;-76
2022/11/14 03:32:52;;;;;;;;;25.25;19.75;;;;;9.22;72.96;101014.03;5077324;28;68560;-76
2022/11/14 03:35:18;;;;;;;;;25.75;20.75;;;;;9.15;73.16;101010.69;5058868;28;74053;-77
2022/11/14 03:37:43;;;;;;;;;22.50;16.75;;;;;9.17;73.44;101027.09;5058999;27;62303;-77
2022/11/14 03:40:08;;;;;;;;;22.75;18.50;;;;;9.12;73.37;101023.75;5058522;28;53373;-76
2022/11/14 03:42:34;;;;;;;;;18.50;15.25;;;;;9.10;73.14;101025.50;5078269;27;45673;-76
2022/11/14 03:45:00;;;;;;;;;25.50;18.00;;;;;9.07;73.64;101023.81;5078008;27;45320;-76
2022/11/14 03:47:25;;;;;;;;;25.75;19.50;;;;;9.08;73.23;101024.66;5078062;28;45391;-77
2022/11/14 03:49:51;;;;;;;;;21.00;12.00;;;;;9.01;73.36;101016.16;5077157;27;68763;-77
2022/11/14 03:52:16;;;;;;;;;28.50;15.00;;;;;9.00;73.83;101009.22;5076679;27;70930;-76
2022/11/14 03:54:41;;;;;;;;;20.75;19.00;;;;;9.06;73.59;101011.75;5059095;28;66190;-77
2022/11/14 03:57:07;;;;;;;;;25.00;15.00;;;;;9.04;73.52;100999.66;5042733;28;52286;-76
2022/11/14 03:59:32;;;;;;;;;23.25;16.00;;;;;9.05;73.71;101002.22;5077985;27;45299;-77
2022/11/14 04:01:57;;;;;;;;;24.00;18.00;;;;;9.08;73.63;101002.19;5077574;28;54376;-76
2022/11/14 04:04:23;;;;;;;;;27.75;17.75;;;;;9.09;73.89;100998.69;5076839;28;72793;-76
2022/11/14 04:06:48;;;;;;;;;22.50;17.50;;;;;9.17;73.58;101000.28;5058601;28;64156;-76
2022/11/14 04:09:13;;;;;;;;;22.00;16.00;;;;;9.15;73.49;100997.69;5077022;27;66225;-76
2022/11/14 04:11:39;;;;;;;;;20.50;16.75;;;;;9.19;73.50;100988.97;5076816;27;65154;-77
2022/11/14 04:14:04;;;;;;;;;18.75;13.25;;;;;9.30;73.04;100999.16;5076772;28;70992;-76
2022/11/14 04:16:29;;;;;;;;;19.50;15.00;;;;;9.36;72.72;100998.19;5058704;27;64086;-77
2022/11/14 04:18:55;;;;;;;;;28.25;21.25;;;;;9.35;73.22;100994.72;5076765;28;65217;-76
2022/11/14 04:21:20;;;;;;;;;29.50;17.75;;;;;9.34;73.06;100989.56;5076660;28;67614;-76
2022/11/14 04:23:45;;;;;;;;;23.75;14.50;;;;;9.25;73.20;100994.06;5076416;28;73323;-76
2022/11/14 04:26:11;;;;;;;;;23.00;18.50;;;;;9.23;73.64;100995.84;5076860;27;64233;-77
2022/11/14 04:28:36;;;;;;;;;24.75;17.00;;;;;9.21;73.56;101002.81;5059548;28;45380;-77
2022/11/14 04:31:01;;;;;;;;;32.50;16.25;;;;;9.20;73.59;101005.44;5058777;28;54348;-77
2022/11/14 04:33:27;;;;;;;;;27.00;15.00;;;;;9.18;73.59;101013.25;5058440;28;69228;-77
2022/11/14 04:35:52;;;;;;;;;26.00;19.00;;;;;9.09;73.39;101001.28;5076954;28;45314;-76
2022/11/14 04:38:17;;;;;;;;;25.25;21.75;;;;;9.05;73.67;101003.97;5076333;28;63226;-76
2022/11/14 04:40:50;;;;;;;;;24.25;15.00;;;;;9.01;74.09;101005.75;5059059;28;45449;-77
2022/11/14 04:43:15;;;;;;;;;23.75;16.50;;;;;8.99;73.65;101009.25;5058922;28;47305;-76
2022/11/14 04:45:41;;;;;;;;;23.75;15.25;;;;;9.02;74.02;101001.41;5059076;28;45427;-77
2022/11/14 04:48:06;;;;;;;;;20.25;16.50;;;;;9.04;74.07;101000.50;5058290;28;68074;-76
2022/11/14 04:50:31;;;;;;;;;22.50;16.50;;;;;9.04;74.21;101010.03;5057615;27;70282;-77
2022/11/14 04:52:57;;;;;;;;;25.25;14.25;;;;;9.04;74.15;100990.09;5057725;28;71616;-76
2022/11/14 04:55:22;;;;;;;;;23.00;14.50;;;;;9.07;73.93;100984.88;5075943;28;68843;-76
2022/11/14 04:57:53;;;;;;;;;28.00;16.75;;;;;9.14;73.76;100990.81;5076489;28;56699;-76
2022/11/14 05:00:19;;;;;;;;;25.75;18.75;;;;;9.16;73.95;100983.84;5058990;28;45454;-76
2022/11/14 05:02:44;;;;;;;;;24.00;15.50;;;;;9.26;73.95;100981.91;5058756;28;45285;-77
2022/11/14 05:05:09;;;;;;;;;12.25;12.25;;;;;9.26;73.90;100977.56;5057390;28;68985;-77
2022/11/14 05:07:35;;;;;;;;;23.00;18.50;;;;;9.28;73.90;100974.94;5075868;28;69222;-76
2022/11/14 05:10:00;;;;;;;;;26.75;16.50;;;;;9.24;73.46;100976.75;5076352;28;56287;-77
2022/11/14 05:12:25;;;;;;;;;20.75;14.00;;;;;9.24;73.48;100975.91;5057701;28;63178;-77
2022/11/14 05:14:50;;;;;;;;;27.00;18.75;;;;;9.22;74.22;100957.75;5057443;28;69814;-77
2022/11/14 05:17:16;;;;;;;;;26.75;14.50;;;;;9.30;73.88;100966.25;5075749;27;69511;-77
2022/11/14 05:19:41;;;;;;;;;17.50;15.75;;;;;9.37;73.87;100963.53;5057397;28;68425;-76
2022/11/14 05:22:06;;;;;;;;;19.00;11.25;;;;;9.44;73.84;100955.56;5058447;28;45368;-76
2022/11/14 05:24:32;;;;;;;;;17.25;15.25;;;;;9.50;73.74;100952.84;5057326;28;73140;-76
2022/11/14 05:26:57;;;;;;;;;22.50;15.25;;;;;9.57;73.08;100955.31;5075703;28;67064;-77
2022/11/14 05:29:23;;;;;;;;;26.25;14.75;;;;;9.56;73.45;100953.59;5076665;28;45344;-76
2022/11/14 05:31:48;;;;;;;;;25.00;16.00;;;;;9.53;73.32;100964.06;5075360;28;69260;-77
2022/11/14 05:34:13;;;;;;;;;25.25;17.75;;;;;9.42;73.48;100957.34;5075943;27;45219;-77
2022/11/14 05:36:39;;;;;;;;;25.75;16.75;;;;;9.36;73.74;100959.22;5075662;28;63354;-76
2022/11/14 05:39:04;;;;;;;;;27.25;19.50;;;;;9.31;73.80;100954.13;5076145;28;45433;-76
2022/11/14 05:41:29;;;;;;;;;21.25;18.00;;;;;9.28;73.93;100951.56;5075114;28;69106;-76
2022/11/14 05:43:55;;;;;;;;;25.50;20.25;;;;;9.25;74.17;100947.31;5058030;28;45306;-76
2022/11/14 05:46:20;;;;;;;;;27.50;16.75;;;;;9.31;74.11;100925.53;5075482;28;66111;-77
2022/11/14 05:48:45;;;;;;;;;21.25;15.75;;;;;9.36;74.37;100941.03;5074973;28;65582;-76
2022/11/14 05:51:11;;;;;;;;;25.00;15.25;;;;;9.33;74.35;100933.31;5075744;28;49214;-76
2022/11/14 05:53:37;;;;;;;;;24.25;17.75;;;;;9.26;74.72;100928.22;5058096;28;45761;-76
2022/11/14 05:56:04;;;;;;;;;29.00;21.75;;;;;9.21;74.60;100931.78;5058258;28;45249;-76
2022/11/14 05:58:31;;;;;;;;;29.25;19.25;;;;;9.24;74.73;100924.81;5076146;28;45429;-77
2022/11/14 06:01:02;;;;;;;;;23.50;16.25;;;;;9.25;75.02;100921.34;5075788;27;46459;-76
2022/11/14 06:03:35;;;;;;;;;22.75;19.75;;;;;9.32;74.73;100918.59;5075108;28;45418;-76
2022/11/14 06:06:02;;;;;;;;;25.75;17.00;;;;;9.35;74.92;100906.41;5076158;28;45174;-76
2022/11/14 06:08:28;;;;;;;;;23.25;18.25;;;;;9.39;74.40;100912.38;5057937;27;45441;-76
2022/11/14 06:10:54;;;;;;;;;23.25;15.50;;;;;9.41;74.41;100902.81;5057655;28;46179;-76
2022/11/14 06:13:19;;;;;;;;;28.25;16.25;;;;;9.46;74.09;100904.44;5075754;28;45391;-77
2022/11/14 06:15:45;;;;;;;;;23.00;19.50;;;;;9.48;74.11;100907.00;5076000;28;45372;-76
2022/11/14 06:18:10;;;;;;;;;30.25;18.50;;;;;9.49;74.43;100916.50;5056397;28;63219;-76
2022/11/14 06:20:35;;;;;;;;;35.25;20.25;;;;;9.47;74.65;100916.53;5074976;28;69386;-76
2022/11/14 06:23:01;;;;;;;;;31.75;19.75;;;;;9.44;74.91;100913.16;5056550;28;72010;-76
2022/11/14 06:25:26;;;;;;;;;28.00;24.50;;;;;9.40;74.68;100917.56;5039910;28;70685;-76
2022/11/14 06:27:51;;;;;;;;;26.00;20.50;;;;;9.39;74.52;100915.00;5056830;28;68296;-76
2022/11/14 06:30:17;;;;;;;;;20.75;17.25;;;;;9.42;74.64;100918.38;5056868;28;61711;-77
2022/11/14 06:32:42;;;;;;;;;29.00;18.75;;;;;9.49;74.28;100924.31;5075248;28;45358;-77
2022/11/14 06:35:07;;;;;;;;;27.75;18.25;;;;;9.52;74.40;100913.84;5074820;28;65779;-77
2022/11/14 06:37:35;;;;;;;;;23.50;18.25;;;;;9.62;74.47;100914.47;5053989;28;45352;-80
2022/11/14 06:40:01;;;;;;;;;27.25;26.00;;;;;9.69;74.05;100913.47;5052248;28;46471;-78
2022/11/14 06:42:26;;;;;;;;;29.50;19.25;;;;;9.71;74.53;100922.06;5033004;28;69213;-78
2022/11/14 06:44:51;;;;;;;;;27.50;20.50;;;;;9.62;74.16;100915.34;5034278;28;63866;-78
2022/11/14 06:47:17;;;;;;;;;29.00;22.75;;;;;9.54;74.30;100909.44;5034126;28;63529;-78
2022/11/14 06:49:42;;;;;;;;;34.50;23.50;;;;;9.55;74.23;100916.38;5033651;28;45401;-78
2022/11/14 06:52:07;;;;;;;;;35.00;21.00;;;;;9.54;74.37;100916.41;5034938;28;45349;-79
2022/11/14 06:54:33;;;;;;;;;31.00;21.50;;;;;9.46;74.43;100917.41;5034149;28;66561;-77
2022/11/14 06:56:58;;;;;;;;;30.00;18.00;;;;;9.42;74.75;100925.31;5033785;28;45595;-78
2022/11/14 06:59:23;;;;;;;;;25.50;20.50;;;;;9.41;75.06;100923.59;5034054;28;73147;-78
2022/11/14 07:01:49;;;;;;;;;31.50;19.25;;;;;9.40;75.15;100932.31;5033641;28;66877;-78
2022/11/14 07:04:14;;;;;;;;;23.25;17.50;;;;;9.35;74.97;100926.34;5034809;28;46310;-78
2022/11/14 07:06:39;;;;;;;;;29.75;21.50;;;;;9.36;75.44;100941.03;5034922;28;45360;-78
2022/11/14 07:09:05;;;;;;;;;23.00;18.00;;;;;9.30;75.56;100945.47;5032598;28;71037;-77
2022/11/14 07:11:30;;;;;;;;;22.00;16.00;;;;;9.28;75.79;100947.22;5034781;28;45299;-79
2022/11/14 07:14:00;;;;;;;;;16.25;15.00;;;;;9.24;75.87;100952.53;5034978;28;45428;-79
2022/11/14 07:16:31;;;;;;;;;17.25;13.75;;;;;9.19;75.89;100951.75;5037268;28;45243;-79
2022/11/14 07:18:57;;;;;;;;;25.00;14.50;;;;;9.12;75.95;100945.84;5074094;28;46695;-79
2022/11/14 07:21:23;;;;;;;;;14.50;8.75;;;;;9.13;76.23;100951.88;5058235;28;45882;-79
2022/11/14 07:23:48;;;;;;;;;21.50;14.50;;;;;9.10;76.37;100951.06;5057112;28;45333;-79
2022/11/14 07:26:14;;;;;;;;;17.25;13.75;;;;;9.08;76.30;100951.97;5057280;28;65950;-79
2022/11/14 07:28:41;;;;;;;;;13.50;10.25;;;;;9.10;75.74;100966.66;5057474;28;63287;-79
2022/11/14 07:31:09;;;;;;;;;21.75;16.25;;;;;9.11;75.91;100959.69;5057777;28;45340;-79
2022/11/14 07:33:35;;;;;;;;;21.25;15.00;;;;;9.09;75.81;100957.13;5058069;28;45372;-78
2022/11/14 07:36:00;;;;;;;;;17.75;15.75;;;;;9.07;76.09;100953.72;5057143;28;70455;-79
2022/11/14 07:38:25;;;;;;;;;21.25;13.50;;;;;9.09;75.84;100964.06;5044289;28;47148;-78
2022/11/14 07:41:05;;;;;;;;;16.50;13.00;;;;;9.09;75.99;100957.13;5025860;28;71924;-78
2022/11/14 07:43:30;;;;;;;;;18.75;14.75;;;;;9.08;76.17;100954.56;5028352;28;45411;-79
2022/11/14 07:46:04;;;;;;;;;21.50;12.25;;;;;9.15;76.07;100950.13;5037508;28;45438;-79
2022/11/14 07:48:29;;;;;;;;;19.00;17.25;;;;;9.21;75.70;100957.78;5033589;28;46481;-78
2022/11/14 07:51:01;;;;;;;;;19.50;10.50;;;;;9.20;75.49;100956.94;5016494;28;45244;-80
2022/11/14 07:53:27;;;;;;;;;15.00;15.00;;;;;9.18;75.64;100956.09;5018294;28;45428;-80
2022/11/14 07:55:53;;;;;;;;;14.00;9.50;;;;;9.22;75.67;100962.09;5028244;28;45490;-79
2022/11/14 07:58:19;;;;;;;;;17.75;13.00;;;;;9.22;75.61;100949.94;5023342;28;45469;-80
2022/11/14 08:00:44;;;;;;;;;11.25;9.50;;;;;9.21;75.91;100948.25;5043481;28;45558;-79
2022/11/14 08:03:10;;;;;;;;;21.75;15.25;;;;;9.23;75.19;100953.41;5033062;28;70066;-81
2022/11/14 08:05:35;;;;;;;;;14.75;11.25;;;;;9.21;75.35;100952.56;5033894;28;45326;-78
2022/11/14 08:08:01;;;;;;;;;18.00;13.50;;;;;9.22;76.00;100946.50;5037061;28;46514;-78
2022/11/14 08:10:26;;;;;;;;;18.00;9.75;;;;;9.26;75.01;100943.81;5016435;28;72122;-82
2022/11/14 08:13:04;;;;;;;;;22.25;13.75;;;;;9.30;75.62;100948.06;5018232;28;45387;-81
2022/11/14 08:15:30;;;;;;;;;18.50;13.75;;;;;9.39;75.56;100954.81;5019109;28;45368;-79
2022/11/14 08:17:57;;;;;;;;;15.50;12.25;;;;;9.45;75.07;100951.22;5027611;28;45482;-82
2022/11/14 08:20:22;;;;;;;;;17.75;13.00;;;;;9.45;75.15;100941.72;5017156;28;46014;-78
2022/11/14 08:22:48;;;;;;;;;19.75;16.00;;;;;9.42;74.87;100951.31;5021675;28;45448;-77
2022/11/14 08:25:13;;;;;;;;;20.50;12.00;;;;;9.34;74.96;100951.44;5033714;28;57587;-77
2022/11/14 08:27:38;;;;;;;;;19.75;12.75;;;;;9.37;75.74;100946.19;5027002;28;57485;-78
2022/11/14 08:30:04;;;;;;;;;21.75;14.75;;;;;9.41;75.11;100953.03;5017951;28;45476;-77
2022/11/14 08:32:30;;;;;;;;;17.25;15.00;;;;;9.44;75.27;100950.38;5026582;28;45381;-79
2022/11/14 08:34:55;;;;;;;;;20.50;16.00;;;;;9.41;75.11;100947.84;5035432;28;67783;-78
2022/11/14 08:37:21;;;;;;;;;28.00;15.75;;;;;9.45;75.19;100943.44;5041768;28;68206;-79
2022/11/14 08:39:46;;;;;;;;;19.00;12.00;;;;;9.39;75.33;100933.19;5076688;28;45542;-78
2022/11/14 08:42:11;;;;;;;;;26.25;14.50;;;;;9.46;75.28;100947.75;5075209;27;45511;-77
2022/11/14 08:44:37;;;;;;;;;17.25;14.75;;;;;9.46;75.82;100948.59;5076042;28;62158;-77
2022/11/14 08:47:02;;;;;;;;;18.75;13.75;;;;;9.46;75.35;100956.41;5076623;28;45571;-77
2022/11/14 08:49:28;;;;;;;;;21.50;15.75;;;;;9.41;75.21;100950.44;5076807;28;45316;-78
2022/11/14 08:51:53;;;;;;;;;15.75;13.00;;;;;9.45;75.50;100935.63;5076308;28;45388;-79
2022/11/14 08:54:19;;;;;;;;;17.50;15.50;;;;;9.65;75.81;100946.47;5076497;28;45446;-78
2022/11/14 08:56:44;;;;;;;;;24.25;18.25;;;;;9.77;75.05;100957.47;5074855;28;46107;-77
2022/11/14 08:59:09;;;;;;;;;19.25;14.75;;;;;9.87;75.38;100944.25;5075759;27;45546;-78
2022/11/14 09:01:35;;;;;;;;;27.75;16.75;;;;;9.95;74.83;100949.25;5070553;28;55050;-77
2022/11/14 09:04:00;;;;;;;;;28.00;21.50;;;;;9.99;74.52;100950.03;5074933;28;45407;-77
2022/11/14 09:06:26;;;;;;;;;20.50;17.50;;;;;10.00;74.56;100964.78;5071008;28;45508;-77
2022/11/14 09:08:51;;;;;;;;;19.00;15.00;;;;;9.97;74.54;100955.28;5074644;27;45428;-78
2022/11/14 09:11:17;;;;;;;;;25.25;15.50;;;;;10.10;74.31;100961.06;5071958;27;63247;-76
2022/11/14 09:13:42;;;;;;;;;24.00;16.75;;;;;10.15;74.35;100945.34;5062306;27;46491;-77
2022/11/14 09:16:07;;;;;;;;;18.00;16.00;;;;;10.32;73.64;100957.97;5065659;27;46218;-77
2022/11/14 09:18:33;;;;;;;;;19.50;14.25;;;;;10.32;73.31;100953.63;5063802;27;67690;-78
2022/11/14 09:21:00;;;;;;;;;25.00;18.25;;;;;10.37;73.76;100948.31;5061092;27;67734;-77
2022/11/14 09:23:26;;;;;;;;;18.25;14.75;;;;;10.48;73.68;100938.50;5070882;28;45605;-77
2022/11/14 09:25:53;;;;;;;;;21.25;15.00;;;;;10.54;73.58;100945.28;5067797;27;70406;-77
2022/11/14 09:28:18;;;;;;;;;23.00;14.00;;;;;10.66;72.87;100934.59;5070134;28;45981;-77
2022/11/14 09:30:44;;;;;;;;;17.50;11.75;;;;;10.82;72.42;100946.28;5060276;28;45443;-78
2022/11/14 09:33:09;;;;;;;;;15.75;14.25;;;;;10.88;72.56;100945.25;5037321;28;67603;-77
2022/11/14 09:35:36;;;;;;;;;23.50;16.00;;;;;11.00;72.13;100938.88;5057654;28;46417;-77
2022/11/14 09:38:05;;;;;;;;;15.50;11.00;;;;;11.04;71.58;100938.75;5054329;28;45769;-77
2022/11/14 09:40:43;;;;;;;;;21.75;15.50;;;;;11.15;71.78;100941.06;5067205;28;45380;-77
2022/11/14 09:43:11;;;;;;;;;22.25;16.25;;;;;11.23;70.81;100949.50;5040016;28;45367;-77
2022/11/14 09:45:41;;;;;;;;;26.25;15.00;;;;;11.18;71.09;100938.38;5071182;28;46563;-77
2022/11/14 09:48:13;;;;;;;;;20.75;16.75;;;;;11.16;71.09;100940.16;5080681;27;45532;-77
2022/11/14 09:51:05;;;;;;;;;24.75;17.00;;;;;11.17;70.76;100938.41;5073912;27;45303;-79
2022/11/14 09:53:40;;;;;;;;;18.25;15.50;;;;;11.14;70.80;100936.72;5075428;28;45491;-77
2022/11/14 09:56:11;;;;;;;;;15.00;14.75;;;;;11.10;70.65;100934.25;5074948;28;46320;-77
2022/11/14 09:58:36;;;;;;;;;24.50;12.75;;;;;11.10;70.72;100929.06;5067757;28;45779;-77
2022/11/14 10:01:31;;;;;;;;;19.25;14.75;;;;;11.12;70.73;100935.91;5041432;28;45340;-78
2022/11/14 10:04:16;;;;;;;;;18.50;14.50;;;;;11.09;70.67;100940.34;5070085;27;45466;-78
2022/11/14 10:06:41;;;;;;;;;20.00;13.75;;;;;11.11;70.64;100928.16;5045136;28;47162;-77
2022/11/14 10:09:29;;;;;;;;;24.00;15.33;;;;;11.14;70.29;100943.69;5060751;27;45661;-77
2022/11/14 10:12:03;;;;;;;;;20.00;15.00;;;;;11.15;70.49;100943.66;5034119;28;45528;-78
2022/11/14 10:14:56;;;;;;;;;19.25;16.00;;;;;11.13;70.35;100936.78;5021429;28;45444;-78
2022/11/14 10:17:22;;;;;;;;;20.00;16.75;;;;;11.12;70.84;100942.88;5056170;28;46358;-78
2022/11/14 10:20:09;;;;;;;;;18.67;14.00;;;;;11.06;70.26;100940.47;5075281;28;45728;-77
2022/11/14 10:22:40;;;;;;;;;22.75;15.00;;;;;11.02;70.40;100945.75;5064801;28;45662;-78
2022/11/14 10:25:21;;;;;;;;;18.50;13.25;;;;;11.01;70.39;100932.75;5074620;28;45496;-77
2022/11/14 10:28:24;;;;;;;;;19.00;15.25;;;;;11.07;70.57;100929.13;5067881;27;47240;-77
2022/11/14 10:31:21;;;;;;;;;22.75;16.00;;;;;11.13;70.78;100924.59;5075037;28;45403;-78
2022/11/14 10:34:07;;;;;;;;;22.75;15.50;;;;;11.31;70.65;100925.84;5070103;27;46153;-77
2022/11/14 10:36:52;;;;;;;;;18.75;15.25;;;;;11.46;70.56;100913.25;5045873;28;45971;-77
2022/11/14 10:39:43;;;;;;;;;20.50;15.75;;;;;11.66;70.22;100915.25;5055525;28;49904;-77
2022/11/14 10:42:36;;;;;;;;;17.75;14.25;;;;;11.86;69.84;100912.88;5063733;27;45932;-78
2022/11/14 10:45:09;;;;;;;;;15.25;12.50;;;;;12.05;69.80;100912.31;5055575;28;45363;-77
2022/11/14 10:47:39;;;;;;;;;19.00;16.00;;;;;12.29;69.27;100906.28;5048721;28;45522;-77
2022/11/14 10:50:18;;;;;;;;;17.25;12.75;;;;;12.82;68.34;100899.31;5065116;27;46486;-78
2022/11/14 10:52:44;;;;;;;;;17.00;14.50;;;;;13.87;67.71;100907.56;5047536;28;45487;-78
2022/11/14 10:55:15;;;;;;;;;16.50;12.25;;;;;15.06;65.38;100899.94;5041485;28;45383;-78
2022/11/14 10:57:42;;;;;;;;;18.75;14.75;;;;;16.15;61.35;100893.97;5058026;28;45359;-78
2022/11/14 11:00:13;;;;;;;;;18.50;15.00;;;;;17.19;59.43;100891.19;5076987;28;46212;-78
2022/11/14 11:02:53;;;;;;;;;18.00;14.75;;;;;18.18;57.47;100888.34;5068725;27;45518;-78
2022/11/14 11:05:22;;;;;;;;;18.00;15.00;;;;;19.21;55.00;100882.16;5069539;28;45388;-77
2022/11/14 11:13:33;;;;;;;;;20.50;17.00;;;;;22.08;49.32;100876.63;5069052;28;45623;-78
2022/11/14 11:16:01;;;;;;;;;18.75;14.50;;;;;22.78;45.45;100885.47;5059560;28;45391;-78
2022/11/14 11:18:35;;;;;;;;;16.00;16.00;;;;;23.23;45.57;100864.22;5059104;28;45498;-78
2022/11/14 11:21:12;;;;;;;;;15.00;14.00;;;;;22.70;46.10;100864.84;5056057;28;46100;-78
2022/11/14 11:23:53;;;;;;;;;15.50;15.25;;;;;22.09;46.47;100870.38;5059126;28;45781;-78